createdAt,value
2019-06-20T00:04:13.198Z,92.50
2019-06-20T00:09:21.742Z,92.50
2019-06-20T00:14:30.182Z,92.70
2019-06-20T00:19:38.115Z,92.60
2019-06-20T00:24:46.923Z,92.90
2019-06-20T00:29:54.816Z,93.80
2019-06-20T00:35:02.517Z,93.90
2019-06-20T00:40:32.900Z,93.90
2019-06-20T00:45:40.989Z,91.90
2019-06-20T00:50:48.577Z,90.60
2019-06-20T00:55:56.687Z,90.60
2019-06-20T01:01:04.985Z,90.00
2019-06-20T01:06:12.778Z,89.10
2019-06-20T01:11:20.401Z,89.20
2019-06-20T01:16:28.307Z,89.20
2019-06-20T01:21:35.800Z,88.30
2019-06-20T01:26:43.448Z,88.20
2019-06-20T01:31:51.453Z,88.70
2019-06-20T01:37:18.449Z,88.00
2019-06-20T01:42:26.305Z,87.20
2019-06-20T01:47:33.615Z,87.30
2019-06-20T01:52:40.992Z,87.50
2019-06-20T01:57:48.598Z,87.90
2019-06-20T02:02:57.996Z,87.00
2019-06-20T02:08:20.945Z,86.60
2019-06-20T02:13:28.667Z,85.40
2019-06-20T02:18:38.937Z,85.30
2019-06-20T02:23:48.482Z,85.50
2019-06-20T02:28:55.595Z,85.00
2019-06-20T02:34:02.613Z,86.30
2019-06-20T02:39:10.430Z,85.90
2019-06-20T02:44:29.947Z,85.50
2019-06-20T03:00:57.780Z,84.80
2019-06-20T03:06:05.875Z,83.90
2019-06-20T03:16:50.279Z,82.90
2019-06-20T03:21:58.664Z,83.60
2019-06-20T03:27:06.670Z,81.50
2019-06-20T03:32:15.833Z,81.40
2019-06-20T03:37:23.778Z,81.60
2019-06-20T03:42:31.876Z,79.70
2019-06-20T03:47:40.086Z,79.20
2019-06-20T03:52:48.944Z,79.80
2019-06-20T03:57:57.130Z,79.60
2019-06-20T04:03:05.771Z,78.20
2019-06-20T04:08:13.562Z,78.40
2019-06-20T04:13:21.444Z,78.70
2019-06-20T04:18:30.676Z,78.30
2019-06-20T04:23:38.519Z,77.90
2019-06-20T04:28:46.921Z,78.00
2019-06-20T04:33:54.933Z,77.50
2019-06-20T04:39:18.397Z,76.70
2019-06-20T04:44:43.882Z,77.20
2019-06-20T04:49:52.415Z,74.80
2019-06-20T04:55:00.290Z,73.90
2019-06-20T05:00:10.082Z,76.10
2019-06-20T05:05:17.187Z,75.50
2019-06-20T05:10:25.417Z,75.30
2019-06-20T05:15:33.238Z,74.40
2019-06-20T05:20:41.442Z,72.40
2019-06-20T05:25:49.402Z,74.40
2019-06-20T05:30:57.473Z,72.30
2019-06-20T05:36:05.328Z,73.70
2019-06-20T05:41:12.938Z,72.50
2019-06-20T05:46:22.356Z,73.20
2019-06-20T05:51:30.178Z,73.50
2019-06-20T05:56:48.749Z,71.40
2019-06-20T06:01:57.078Z,71.80
2019-06-20T06:07:05.276Z,68.70
2019-06-20T06:12:13.044Z,70.20
2019-06-20T06:17:42.103Z,68.80
2019-06-20T06:23:10.667Z,68.40
2019-06-20T06:28:19.316Z,67.30
2019-06-20T06:33:28.395Z,69.20
2019-06-20T06:38:36.816Z,67.90
2019-06-20T06:43:44.634Z,66.30
2019-06-20T06:48:52.471Z,68.50
2019-06-20T06:54:00.976Z,65.10
2019-06-20T06:59:08.948Z,65.00
2019-06-20T07:04:17.191Z,61.80
2019-06-20T07:09:25.000Z,62.90
2019-06-20T07:14:52.686Z,64.20
2019-06-20T07:20:00.861Z,64.30
2019-06-20T07:25:10.098Z,63.60
2019-06-20T07:30:18.367Z,63.60
2019-06-20T07:35:26.477Z,62.50
2019-06-20T07:40:34.521Z,62.10
2019-06-20T07:45:43.250Z,62.90
2019-06-20T07:50:52.612Z,64.20
2019-06-20T07:56:00.568Z,65.00
2019-06-20T08:01:11.749Z,63.00
2019-06-20T08:06:19.796Z,61.70
2019-06-20T08:11:27.774Z,62.90
2019-06-20T08:21:53.484Z,62.70
2019-06-20T08:27:03.266Z,62.30
2019-06-20T08:32:12.100Z,61.30
2019-06-20T08:37:20.072Z,61.20
2019-06-20T08:42:28.403Z,63.00
2019-06-20T08:47:37.021Z,62.00
2019-06-20T08:52:44.652Z,62.00
2019-06-20T08:58:12.990Z,60.70
2019-06-20T09:03:21.917Z,61.70
2019-06-20T09:08:30.050Z,61.70
2019-06-20T09:13:40.612Z,62.00
2019-06-20T09:18:48.194Z,62.60
2019-06-20T09:23:57.802Z,62.40
2019-06-20T09:29:05.990Z,62.20
2019-06-20T09:34:33.821Z,63.10
2019-06-20T09:39:41.690Z,62.40
2019-06-20T09:45:01.158Z,62.40
2019-06-20T09:50:10.579Z,63.20
2019-06-20T10:00:57.773Z,62.30
2019-06-20T10:06:13.172Z,63.30
2019-06-20T10:11:14.358Z,62.00
2019-06-20T10:16:22.404Z,62.00
2019-06-20T10:21:31.115Z,61.70
2019-06-20T10:26:39.147Z,61.70
2019-06-20T10:31:50.737Z,61.70
2019-06-20T10:36:59.463Z,61.30
2019-06-20T10:47:33.602Z,61.70
2019-06-20T10:52:36.239Z,62.60
2019-06-20T10:57:44.658Z,63.30
2019-06-20T11:03:10.594Z,63.70
2019-06-20T11:08:19.920Z,64.00
2019-06-20T11:13:28.235Z,65.10
2019-06-20T11:18:37.391Z,66.50
2019-06-20T11:23:47.425Z,67.50
2019-06-20T11:28:55.826Z,69.40
2019-06-20T11:34:04.144Z,70.60
2019-06-20T11:39:12.677Z,70.60
2019-06-20T11:44:20.606Z,71.90
2019-06-20T11:49:28.570Z,72.60
2019-06-20T11:54:36.535Z,72.50
2019-06-20T11:59:45.878Z,72.60
2019-06-20T12:04:53.509Z,73.30
2019-06-20T12:15:28.215Z,72.30
2019-06-20T12:20:36.406Z,71.90
2019-06-20T12:25:44.725Z,72.70
2019-06-20T12:30:52.650Z,73.40
2019-06-20T12:36:00.558Z,74.20
2019-06-20T12:41:09.012Z,74.70
2019-06-20T12:46:18.406Z,75.50
2019-06-20T12:51:28.758Z,75.30
2019-06-20T12:56:38.654Z,75.10
2019-06-20T13:01:48.363Z,75.30
2019-06-20T13:06:56.299Z,76.00
2019-06-20T13:12:05.299Z,76.30
2019-06-20T13:17:13.306Z,76.40
2019-06-20T13:22:21.458Z,77.20
2019-06-20T13:27:29.963Z,77.20
2019-06-20T13:32:38.432Z,77.60
2019-06-20T13:37:47.935Z,78.00
2019-06-20T13:42:56.914Z,78.20
2019-06-20T13:48:05.001Z,79.10
2019-06-20T13:53:13.396Z,79.40
2019-06-20T13:58:21.326Z,79.30
2019-06-20T14:03:29.894Z,79.30
2019-06-20T14:08:38.643Z,79.70
2019-06-20T14:13:50.143Z,79.90
2019-06-20T14:19:16.297Z,80.10
2019-06-20T14:24:45.073Z,80.50
2019-06-20T14:29:53.192Z,81.40
2019-06-20T14:35:01.277Z,81.50
2019-06-20T14:40:10.887Z,82.30
2019-06-20T14:45:19.449Z,82.70
2019-06-20T14:50:27.520Z,83.40
2019-06-20T14:55:35.724Z,83.80
2019-06-20T15:06:18.033Z,84.60
2019-06-20T15:11:25.906Z,85.20
2019-06-20T15:16:34.475Z,85.70
2019-06-20T15:21:43.380Z,86.10
2019-06-20T15:26:52.465Z,86.60
2019-06-20T15:32:17.243Z,86.70
2019-06-20T15:37:23.657Z,86.80
2019-06-20T15:42:33.641Z,87.40
2019-06-20T15:47:41.851Z,87.60
2019-06-20T15:52:50.036Z,87.80
2019-06-20T15:57:57.964Z,87.80
2019-06-20T16:03:10.216Z,88.20
2019-06-20T16:08:15.702Z,88.30
2019-06-20T16:13:23.725Z,88.50
2019-06-20T16:18:31.536Z,88.80
2019-06-20T16:23:39.830Z,89.20
2019-06-20T16:28:47.538Z,89.70
2019-06-20T16:39:27.494Z,89.80
2019-06-20T16:44:35.842Z,89.80
2019-06-20T16:49:43.966Z,90.00
2019-06-20T16:54:52.716Z,90.00
2019-06-20T17:00:00.876Z,89.80
2019-06-20T17:05:10.736Z,90.00
2019-06-20T17:10:19.522Z,90.10
2019-06-20T17:15:53.999Z,90.30
2019-06-20T17:21:02.236Z,90.30
2019-06-20T17:26:30.640Z,90.50
2019-06-20T17:31:38.564Z,90.70
2019-06-20T17:36:46.796Z,90.70
2019-06-20T17:41:55.708Z,91.10
2019-06-20T17:47:23.992Z,91.00
2019-06-20T17:52:32.098Z,91.20
2019-06-20T17:57:40.207Z,91.30
2019-06-20T18:03:07.996Z,91.70
2019-06-20T18:08:16.034Z,92.30
2019-06-20T18:18:40.951Z,92.70
2019-06-20T18:23:48.910Z,92.70
2019-06-20T18:28:57.877Z,92.60
2019-06-20T18:34:06.665Z,92.70
2019-06-20T18:39:35.128Z,92.50
2019-06-20T18:44:43.120Z,92.40
2019-06-20T18:49:50.978Z,92.40
2019-06-20T18:55:00.105Z,92.20
2019-06-20T19:00:10.214Z,92.20
2019-06-20T19:05:18.267Z,90.40
2019-06-20T19:15:53.832Z,90.10
2019-06-20T19:21:01.605Z,90.70
2019-06-20T19:26:09.511Z,90.40
2019-06-20T19:31:17.593Z,89.70
2019-06-20T19:36:25.494Z,89.40
2019-06-20T19:41:33.388Z,90.00
2019-06-20T19:46:42.866Z,89.90
2019-06-20T19:51:51.836Z,90.00
2019-06-20T20:02:22.097Z,90.10
2019-06-20T20:07:29.898Z,90.40
2019-06-20T20:12:38.173Z,90.30
2019-06-20T20:17:45.869Z,90.60
2019-06-20T20:22:55.166Z,90.60
2019-06-20T20:28:03.108Z,90.90
2019-06-20T20:33:38.616Z,91.10
2019-06-20T20:38:46.494Z,91.30
2019-06-20T20:43:54.761Z,91.50
2019-06-20T20:49:21.348Z,91.50
2019-06-20T20:54:29.808Z,91.80
2019-06-20T20:59:38.014Z,91.90
2019-06-20T21:04:46.355Z,92.10
2019-06-20T21:10:14.287Z,91.90
2019-06-20T21:15:23.667Z,91.90
2019-06-20T21:20:32.166Z,91.40
2019-06-20T21:25:40.039Z,91.40
2019-06-20T21:30:49.196Z,91.40
2019-06-20T21:36:07.890Z,91.50
2019-06-20T21:41:06.821Z,91.30
2019-06-20T21:46:14.632Z,91.20
2019-06-20T21:51:22.411Z,91.10
2019-06-20T21:56:30.324Z,91.10
2019-06-20T22:01:48.544Z,91.40
2019-06-20T22:06:57.487Z,91.50
2019-06-20T22:12:06.969Z,91.80
2019-06-20T22:17:16.702Z,91.80
2019-06-20T22:22:24.592Z,92.00
2019-06-20T22:27:32.405Z,91.80
2019-06-20T22:32:40.356Z,91.80
2019-06-20T22:37:49.454Z,91.70
2019-06-20T22:42:59.855Z,91.40
2019-06-20T22:48:07.340Z,91.30
2019-06-20T22:53:16.008Z,91.00
2019-06-20T22:58:23.904Z,90.80
2019-06-20T23:03:32.619Z,90.80
2019-06-20T23:08:40.534Z,90.60
2019-06-20T23:13:49.368Z,90.80
2019-06-20T23:18:57.786Z,90.60
2019-06-20T23:24:05.747Z,90.60
2019-06-20T23:29:22.737Z,90.50
2019-06-20T23:34:33.618Z,90.30
2019-06-20T23:39:46.511Z,90.50
2019-06-20T23:44:57.490Z,90.60
2019-06-20T23:50:05.661Z,90.80
2019-06-20T23:55:14.826Z,91.00
